createdAt,value
2018-12-30T00:00:22.243Z,100191.73
2018-12-30T00:02:50.119Z,100189.05
2018-12-30T00:05:18.333Z,100196.77
2018-12-30T00:07:46.154Z,100184.46
2018-12-30T00:10:13.947Z,100183.48
2018-12-30T00:12:41.692Z,100183.08
2018-12-30T00:15:09.952Z,100181.18
2018-12-30T00:17:37.725Z,100175.09
2018-12-30T00:20:05.870Z,100179.40
2018-12-30T00:22:33.730Z,100185.84
2018-12-30T00:25:01.518Z,100186.86
2018-12-30T00:27:29.288Z,100184.81
2018-12-30T00:29:57.145Z,100186.88
2018-12-30T00:32:25.776Z,100191.80
2018-12-30T00:34:53.584Z,100204.48
2018-12-30T00:37:21.375Z,100215.02
2018-12-30T00:39:49.122Z,100220.21
2018-12-30T00:42:27.035Z,100225.11
2018-12-30T00:44:55.452Z,100237.73
2018-12-30T00:47:23.262Z,100242.69
2018-12-30T00:49:51.054Z,100250.23
2018-12-30T00:52:18.890Z,100259.14
2018-12-30T00:54:46.651Z,100258.75
2018-12-30T00:57:14.421Z,100262.88
2018-12-30T00:59:42.444Z,100253.26
2018-12-30T01:02:10.349Z,100249.03
2018-12-30T01:04:38.085Z,100249.22
2018-12-30T01:07:06.056Z,100244.82
2018-12-30T01:09:33.839Z,100249.11
2018-12-30T01:12:06.704Z,100253.09
2018-12-30T01:14:34.501Z,100250.91
2018-12-30T01:17:02.317Z,100253.58
2018-12-30T01:19:30.120Z,100250.72
2018-12-30T01:21:59.255Z,100245.28
2018-12-30T01:24:27.109Z,100253.56
2018-12-30T01:26:54.929Z,100253.72
2018-12-30T01:29:22.668Z,100256.22
2018-12-30T01:31:50.475Z,100257.48
2018-12-30T01:34:18.612Z,100260.13
2018-12-30T01:36:46.424Z,100254.66
2018-12-30T01:39:14.239Z,100269.45
2018-12-30T01:41:42.295Z,100265.34
2018-12-30T01:44:10.222Z,100273.36
2018-12-30T01:46:38.026Z,100275.39
2018-12-30T01:49:05.837Z,100278.55
2018-12-30T01:51:33.721Z,100283.31
2018-12-30T01:54:01.515Z,100279.76
2018-12-30T01:56:29.607Z,100291.41
2018-12-30T01:58:57.367Z,100286.05
2018-12-30T02:01:25.168Z,100290.73
2018-12-30T02:03:53.057Z,100290.11
2018-12-30T02:06:20.889Z,100289.22
2018-12-30T02:08:48.732Z,100287.45
2018-12-30T02:11:16.572Z,100295.02
2018-12-30T02:13:44.381Z,100299.64
2018-12-30T02:16:13.746Z,100308.33
2018-12-30T02:18:41.579Z,100306.73
2018-12-30T02:21:09.352Z,100316.41
2018-12-30T02:23:37.424Z,100314.78
2018-12-30T02:26:05.237Z,100311.22
2018-12-30T02:28:33.070Z,100314.36
2018-12-30T02:31:00.847Z,100314.77
2018-12-30T02:33:28.648Z,100325.86
2018-12-30T02:35:56.495Z,100323.82
2018-12-30T02:38:24.425Z,100329.58
2018-12-30T02:40:52.228Z,100327.83
2018-12-30T02:43:25.317Z,100326.23
2018-12-30T02:45:53.080Z,100328.08
2018-12-30T02:48:20.910Z,100325.48
2018-12-30T02:50:48.747Z,100329.13
2018-12-30T02:53:16.664Z,100325.59
2018-12-30T02:55:44.484Z,100323.50
2018-12-30T02:58:12.304Z,100325.67
2018-12-30T03:00:40.058Z,100330.12
2018-12-30T03:03:13.232Z,100330.30
2018-12-30T03:05:41.085Z,100334.31
2018-12-30T03:08:08.827Z,100330.78
2018-12-30T03:10:36.687Z,100338.17
2018-12-30T03:13:04.599Z,100334.58
2018-12-30T03:15:32.396Z,100333.81
2018-12-30T03:18:00.172Z,100335.34
2018-12-30T03:20:28.015Z,100336.67
2018-12-30T03:22:55.988Z,100338.05
2018-12-30T03:25:23.794Z,100344.63
2018-12-30T03:27:51.614Z,100343.50
2018-12-30T03:30:19.600Z,100346.17
2018-12-30T03:32:52.586Z,100338.08
2018-12-30T03:35:20.344Z,100347.70
2018-12-30T03:37:48.163Z,100343.61
2018-12-30T03:40:15.994Z,100360.19
2018-12-30T03:42:43.910Z,100361.84
2018-12-30T03:45:11.731Z,100368.12
2018-12-30T03:47:39.608Z,100365.56
2018-12-30T03:50:07.424Z,100368.20
2018-12-30T03:52:40.526Z,100369.05
2018-12-30T03:55:08.331Z,100363.09
2018-12-30T03:57:36.125Z,100375.16
2018-12-30T04:00:04.761Z,100373.85
2018-12-30T04:03:12.623Z,100366.69
2018-12-30T04:05:41.018Z,100370.31
2018-12-30T04:08:08.825Z,100372.98
2018-12-30T04:10:36.636Z,100377.23
2018-12-30T04:13:04.500Z,100382.31
2018-12-30T04:15:32.339Z,100388.28
2018-12-30T04:18:00.150Z,100385.66
2018-12-30T04:20:27.901Z,100389.58
2018-12-30T04:22:55.833Z,100401.37
2018-12-30T04:25:23.604Z,100407.67
2018-12-30T04:27:51.413Z,100406.16
2018-12-30T04:30:37.909Z,100415.33
2018-12-30T04:33:20.029Z,100424.92
2018-12-30T04:35:47.800Z,100428.56
2018-12-30T04:38:15.517Z,100434.28
2018-12-30T04:40:43.332Z,100428.74
2018-12-30T04:43:16.279Z,100424.30
2018-12-30T04:45:44.141Z,100439.91
2018-12-30T04:48:11.953Z,100438.27
2018-12-30T04:50:40.107Z,100439.54
2018-12-30T04:53:07.984Z,100433.82
2018-12-30T04:55:35.792Z,100438.41
2018-12-30T04:58:03.900Z,100443.34
2018-12-30T05:00:31.695Z,100440.77
2018-12-30T05:02:59.685Z,100443.17
2018-12-30T05:05:30.298Z,100455.49
2018-12-30T05:07:58.108Z,100448.13
2018-12-30T05:10:25.937Z,100448.67
2018-12-30T05:12:59.051Z,100456.27
2018-12-30T05:15:26.859Z,100461.15
2018-12-30T05:17:54.651Z,100468.69
2018-12-30T05:20:22.415Z,100472.15
2018-12-30T05:22:50.400Z,100488.45
2018-12-30T05:25:18.145Z,100485.82
2018-12-30T05:27:45.949Z,100484.84
2018-12-30T05:30:13.734Z,100493.65
2018-12-30T05:32:41.551Z,100490.58
2018-12-30T05:35:09.410Z,100498.84
2018-12-30T05:37:37.226Z,100504.48
2018-12-30T05:40:05.010Z,100501.87
2018-12-30T05:42:32.802Z,100507.59
2018-12-30T05:45:00.629Z,100521.73
2018-12-30T05:47:28.442Z,100521.90
2018-12-30T05:49:56.221Z,100535.83
2018-12-30T05:52:24.059Z,100538.13
2018-12-30T05:54:51.825Z,100535.60
2018-12-30T05:57:19.670Z,100540.05
2018-12-30T05:59:47.456Z,100546.60
2018-12-30T06:02:20.499Z,100549.92
2018-12-30T06:04:48.257Z,100553.32
2018-12-30T06:07:16.043Z,100558.41
2018-12-30T06:09:43.834Z,100553.08
2018-12-30T06:12:11.660Z,100564.03
2018-12-30T06:14:39.487Z,100564.66
2018-12-30T06:17:07.275Z,100574.09
2018-12-30T06:19:35.028Z,100576.16
2018-12-30T06:22:02.868Z,100583.33
2018-12-30T06:24:30.639Z,100587.66
2018-12-30T06:26:58.421Z,100592.58
2018-12-30T06:29:26.218Z,100599.61
2018-12-30T06:31:54.174Z,100613.45
2018-12-30T06:34:21.980Z,100625.16
2018-12-30T06:36:49.814Z,100627.63
2018-12-30T06:39:17.661Z,100627.63
2018-12-30T06:41:45.550Z,100635.56
2018-12-30T06:44:13.340Z,100633.92
2018-12-30T06:46:41.148Z,100645.73
2018-12-30T06:49:10.610Z,100649.21
2018-12-30T06:51:43.560Z,100658.27
2018-12-30T06:54:11.371Z,100664.50
2018-12-30T06:56:39.178Z,100670.89
2018-12-30T06:59:06.969Z,100677.25
2018-12-30T07:01:34.778Z,100675.14
2018-12-30T07:04:02.568Z,100681.58
2018-12-30T07:06:30.415Z,100690.07
2018-12-30T07:08:58.187Z,100687.87
2018-12-30T07:11:26.016Z,100678.96
2018-12-30T07:13:53.872Z,100693.27
2018-12-30T07:16:21.673Z,100687.80
2018-12-30T07:18:49.460Z,100689.58
2018-12-30T07:21:17.295Z,100688.16
2018-12-30T07:23:50.447Z,100682.52
2018-12-30T07:26:18.272Z,100681.91
2018-12-30T07:28:46.324Z,100690.51
2018-12-30T07:31:14.125Z,100686.37
2018-12-30T07:33:41.908Z,100687.86
2018-12-30T07:36:09.734Z,100690.88
2018-12-30T07:38:37.545Z,100692.91
2018-12-30T07:41:05.306Z,100699.72
2018-12-30T07:43:33.139Z,100695.17
2018-12-30T07:46:00.922Z,100700.69
2018-12-30T07:48:28.748Z,100708.52
2018-12-30T07:50:56.533Z,100714.46
2018-12-30T07:53:24.401Z,100716.31
2018-12-30T07:55:52.219Z,100726.78
2018-12-30T07:58:19.994Z,100725.09
2018-12-30T08:00:47.837Z,100728.75
2018-12-30T08:03:15.637Z,100731.61
2018-12-30T08:05:43.683Z,100742.84
2018-12-30T08:08:11.445Z,100736.49
2018-12-30T08:10:39.327Z,100751.66
2018-12-30T08:13:07.333Z,100740.50
2018-12-30T08:15:35.114Z,100758.45
2018-12-30T08:18:02.890Z,100752.55
2018-12-30T08:20:30.716Z,100758.36
2018-12-30T08:22:58.644Z,100762.08
2018-12-30T08:25:26.505Z,100768.80
2018-12-30T08:27:54.272Z,100775.09
2018-12-30T08:30:22.128Z,100774.46
2018-12-30T08:32:50.053Z,100781.41
2018-12-30T08:35:17.937Z,100785.31
2018-12-30T08:37:45.700Z,100788.02
2018-12-30T08:40:13.526Z,100785.69
2018-12-30T08:42:41.412Z,100791.52
2018-12-30T08:45:09.197Z,100793.34
2018-12-30T08:47:37.007Z,100793.61
2018-12-30T08:50:05.165Z,100801.19
2018-12-30T08:52:33.430Z,100807.13
2018-12-30T08:55:01.368Z,100797.91
2018-12-30T08:57:29.223Z,100797.88
2018-12-30T08:59:57.059Z,100802.64
2018-12-30T09:02:24.876Z,100804.20
2018-12-30T09:04:52.711Z,100810.09
2018-12-30T09:07:20.541Z,100810.26
2018-12-30T09:09:48.393Z,100805.39
2018-12-30T09:12:16.212Z,100810.18
2018-12-30T09:14:44.068Z,100806.73
2018-12-30T09:17:11.877Z,100808.74
2018-12-30T09:19:39.717Z,100805.72
2018-12-30T09:22:07.537Z,100804.48
2018-12-30T09:24:37.606Z,100799.55
2018-12-30T09:27:05.412Z,100811.09
2018-12-30T09:29:33.239Z,100815.50
2018-12-30T09:32:06.300Z,100827.01
2018-12-30T09:34:34.119Z,100820.68
2018-12-30T09:37:01.984Z,100819.09
2018-12-30T09:39:29.791Z,100819.23
2018-12-30T09:42:02.870Z,100828.52
2018-12-30T09:44:30.676Z,100830.55
2018-12-30T09:46:58.520Z,100821.17
2018-12-30T09:49:26.369Z,100826.91
2018-12-30T09:51:54.261Z,100829.52
2018-12-30T09:54:22.492Z,100828.06
2018-12-30T09:56:50.368Z,100832.66
2018-12-30T09:59:18.150Z,100834.02
2018-12-30T10:01:45.922Z,100829.06
2018-12-30T10:04:13.786Z,100830.72
2018-12-30T10:06:41.648Z,100827.52
2018-12-30T10:09:09.486Z,100822.49
2018-12-30T10:11:37.841Z,100826.48
2018-12-30T10:14:06.430Z,100835.33
2018-12-30T10:16:34.252Z,100837.15
2018-12-30T10:19:02.082Z,100844.02
2018-12-30T10:21:29.885Z,100840.03
2018-12-30T10:23:57.712Z,100849.50
2018-12-30T10:26:25.493Z,100847.15
2018-12-30T10:28:53.313Z,100855.53
2018-12-30T10:31:21.039Z,100844.91
2018-12-30T10:33:54.068Z,100866.19
2018-12-30T10:36:21.906Z,100861.23
2018-12-30T10:38:49.711Z,100859.11
2018-12-30T10:41:17.530Z,100861.13
2018-12-30T10:43:45.410Z,100856.67
2018-12-30T10:46:13.227Z,100854.34
2018-12-30T10:48:40.972Z,100854.84
2018-12-30T10:51:08.733Z,100863.53
2018-12-30T10:53:36.550Z,100858.43
2018-12-30T10:56:04.428Z,100864.11
2018-12-30T10:58:32.462Z,100858.34
2018-12-30T11:01:00.541Z,100857.05
2018-12-30T11:03:28.494Z,100855.70
2018-12-30T11:05:56.307Z,100864.39
2018-12-30T11:08:24.099Z,100868.92
2018-12-30T11:10:56.678Z,100860.95
2018-12-30T11:13:28.143Z,100862.77
2018-12-30T11:15:56.079Z,100866.16
2018-12-30T11:18:23.908Z,100867.41
2018-12-30T11:20:51.739Z,100866.98
2018-12-30T11:23:19.546Z,100871.88
2018-12-30T11:25:47.336Z,100865.14
2018-12-30T11:28:15.122Z,100871.02
2018-12-30T11:30:42.881Z,100873.16
2018-12-30T11:33:10.716Z,100865.62
2018-12-30T11:35:46.937Z,100868.15
2018-12-30T11:38:22.318Z,100866.69
2018-12-30T11:40:50.133Z,100856.03
2018-12-30T11:43:32.974Z,100855.56
2018-12-30T11:46:00.770Z,100842.08
2018-12-30T11:48:28.592Z,100843.44
2018-12-30T11:50:56.371Z,100841.78
2018-12-30T11:53:24.267Z,100827.36
2018-12-30T11:55:52.055Z,100825.59
2018-12-30T11:58:19.883Z,100834.67
2018-12-30T12:00:47.680Z,100834.47
2018-12-30T12:03:15.641Z,100831.16
2018-12-30T12:05:43.440Z,100826.28
2018-12-30T12:08:11.291Z,100821.50
2018-12-30T12:10:39.042Z,100820.86
2018-12-30T12:13:06.851Z,100819.16
2018-12-30T12:15:34.628Z,100816.63
2018-12-30T12:18:02.391Z,100813.40
2018-12-30T12:20:30.237Z,100813.08
2018-12-30T12:22:58.061Z,100814.84
2018-12-30T12:25:25.796Z,100811.75
2018-12-30T12:27:53.637Z,100816.34
2018-12-30T12:30:21.388Z,100813.83
2018-12-30T12:32:49.295Z,100809.83
2018-12-30T12:35:17.086Z,100814.42
2018-12-30T12:37:44.957Z,100800.89
2018-12-30T12:40:12.756Z,100803.41
2018-12-30T12:42:40.567Z,100796.14
2018-12-30T12:45:08.367Z,100807.63
2018-12-30T12:47:36.117Z,100795.07
2018-12-30T12:50:04.243Z,100795.94
2018-12-30T12:52:32.040Z,100795.88
2018-12-30T12:54:59.899Z,100796.96
2018-12-30T12:57:27.693Z,100791.10
2018-12-30T12:59:55.460Z,100795.62
2018-12-30T13:02:23.291Z,100795.86
2018-12-30T13:04:51.039Z,100800.20
2018-12-30T13:07:18.867Z,100806.91
2018-12-30T13:09:46.632Z,100809.20
2018-12-30T13:12:14.444Z,100800.81
2018-12-30T13:14:42.264Z,100806.91
2018-12-30T13:17:10.036Z,100810.07
2018-12-30T13:19:37.874Z,100820.59
2018-12-30T13:22:05.659Z,100822.19
2018-12-30T13:24:39.856Z,100821.03
2018-12-30T13:27:03.160Z,100822.31
2018-12-30T13:29:30.918Z,100832.06
2018-12-30T13:31:58.849Z,100830.64
2018-12-30T13:34:26.640Z,100824.44
2018-12-30T13:36:54.429Z,100826.26
2018-12-30T13:39:22.253Z,100835.66
2018-12-30T13:41:50.238Z,100827.64
2018-12-30T13:44:18.114Z,100828.20
2018-12-30T13:46:45.955Z,100830.82
2018-12-30T13:49:13.791Z,100832.09
2018-12-30T13:51:41.611Z,100828.44
2018-12-30T13:54:09.418Z,100831.33
2018-12-30T13:56:37.219Z,100836.35
2018-12-30T13:59:05.058Z,100837.61
2018-12-30T14:01:32.973Z,100837.39
2018-12-30T14:04:00.802Z,100837.34
2018-12-30T14:06:28.578Z,100831.75
2018-12-30T14:08:56.360Z,100836.39
2018-12-30T14:11:24.732Z,100844.01
2018-12-30T14:13:52.556Z,100848.17
2018-12-30T14:16:20.339Z,100849.07
2018-12-30T14:18:48.150Z,100855.66
2018-12-30T14:21:15.921Z,100863.38
2018-12-30T14:23:43.743Z,100861.47
2018-12-30T14:26:11.467Z,100869.05
2018-12-30T14:28:39.336Z,100871.02
2018-12-30T14:31:07.210Z,100880.90
2018-12-30T14:33:40.063Z,100886.42
2018-12-30T14:36:07.793Z,100890.13
2018-12-30T14:38:35.617Z,100888.15
2018-12-30T14:41:03.500Z,100893.94
2018-12-30T14:43:31.449Z,100897.51
2018-12-30T14:45:59.235Z,100901.55
2018-12-30T14:48:27.018Z,100890.19
2018-12-30T14:50:54.856Z,100890.06
2018-12-30T14:53:22.752Z,100893.78
2018-12-30T14:55:50.529Z,100889.25
2018-12-30T14:58:18.363Z,100886.45
2018-12-30T15:00:47.722Z,100885.51
2018-12-30T15:03:40.393Z,100876.91
2018-12-30T15:06:08.153Z,100883.34
2018-12-30T15:08:35.942Z,100888.84
2018-12-30T15:11:03.812Z,100890.19
2018-12-30T15:13:31.587Z,100886.22
2018-12-30T15:15:59.447Z,100894.17
2018-12-30T15:18:27.283Z,100895.61
2018-12-30T15:20:55.086Z,100899.88
2018-12-30T15:23:22.899Z,100912.39
2018-12-30T15:25:50.730Z,100925.97
2018-12-30T15:28:18.562Z,100925.77
2018-12-30T15:30:46.376Z,100932.73
2018-12-30T15:33:14.184Z,100927.25
2018-12-30T15:35:41.985Z,100926.09
2018-12-30T15:38:09.776Z,100928.01
2018-12-30T15:40:37.562Z,100923.58
2018-12-30T15:43:30.083Z,100921.30
2018-12-30T15:45:57.856Z,100912.87
2018-12-30T15:48:25.664Z,100909.55
2018-12-30T15:50:53.441Z,100902.64
2018-12-30T15:53:21.346Z,100901.13
2018-12-30T15:55:49.158Z,100909.14
2018-12-30T15:58:16.946Z,100901.54
2018-12-30T16:00:44.717Z,100897.05
2018-12-30T16:03:12.676Z,100898.19
2018-12-30T16:05:40.512Z,100893.77
2018-12-30T16:08:08.367Z,100885.34
2018-12-30T16:10:53.384Z,100878.77
2018-12-30T16:13:35.602Z,100872.70
2018-12-30T16:16:05.886Z,100866.38
2018-12-30T16:18:37.030Z,100860.42
2018-12-30T16:21:07.650Z,100875.49
2018-12-30T16:23:35.670Z,100873.86
2018-12-30T16:26:03.506Z,100886.67
2018-12-30T16:28:33.183Z,100888.78
2018-12-30T16:31:01.361Z,100896.56
2018-12-30T16:33:44.384Z,100897.55
2018-12-30T16:36:13.798Z,100895.36
2018-12-30T16:38:41.568Z,100898.10
2018-12-30T16:41:09.405Z,100898.10
2018-12-30T16:44:01.690Z,100901.33
2018-12-30T16:46:29.543Z,100907.30
2018-12-30T16:48:57.375Z,100917.93
2018-12-30T16:51:25.139Z,100934.73
2018-12-30T16:53:53.080Z,100933.22
2018-12-30T16:56:20.904Z,100932.77
2018-12-30T16:58:48.699Z,100925.23
2018-12-30T17:01:16.501Z,100933.64
2018-12-30T17:03:44.438Z,100943.22
2018-12-30T17:06:12.236Z,100955.30
2018-12-30T17:08:40.048Z,100952.57
2018-12-30T17:11:07.938Z,100957.45
2018-12-30T17:13:35.695Z,100954.16
2018-12-30T17:16:03.491Z,100940.88
2018-12-30T17:18:31.293Z,100942.48
2018-12-30T17:20:59.195Z,100940.64
2018-12-30T17:23:26.988Z,100947.22
2018-12-30T17:25:54.765Z,100950.23
2018-12-30T17:28:22.580Z,100945.74
2018-12-30T17:30:50.404Z,100954.62
2018-12-30T17:33:18.206Z,100948.83
2018-12-30T17:35:46.330Z,100940.61
2018-12-30T17:38:14.266Z,100939.55
2018-12-30T17:40:42.371Z,100937.31
2018-12-30T17:43:10.163Z,100950.35
2018-12-30T17:45:38.036Z,100944.89
2018-12-30T17:48:06.006Z,100947.59
2018-12-30T17:50:38.430Z,100950.61
2018-12-30T17:53:06.535Z,100946.53
2018-12-30T17:55:35.223Z,100942.83
2018-12-30T17:58:03.070Z,100936.11
2018-12-30T18:00:30.935Z,100944.31
2018-12-30T18:03:02.653Z,100950.47
2018-12-30T18:05:36.413Z,100957.16
2018-12-30T18:08:04.306Z,100953.59
2018-12-30T18:10:32.251Z,100959.28
2018-12-30T18:13:00.171Z,100963.88
2018-12-30T18:15:32.406Z,100960.52
2018-12-30T18:18:02.565Z,100962.48
2018-12-30T18:20:37.314Z,100962.82
2018-12-30T18:23:05.552Z,100967.62
2018-12-30T18:25:37.642Z,100959.98
2018-12-30T18:28:10.438Z,100958.41
2018-12-30T18:30:44.094Z,100958.69
2018-12-30T18:33:15.840Z,100956.66
2018-12-30T18:35:47.390Z,100953.66
2018-12-30T18:38:26.786Z,100951.97
2018-12-30T18:40:54.835Z,100954.87
2018-12-30T18:43:22.716Z,100956.95
2018-12-30T18:45:50.952Z,100962.48
2018-12-30T18:48:36.803Z,100954.92
2018-12-30T18:51:06.663Z,100953.88
2018-12-30T18:53:36.623Z,100957.44
2018-12-30T18:56:08.085Z,100953.94
2018-12-30T18:58:39.551Z,100945.99
2018-12-30T19:01:28.160Z,100952.73
2018-12-30T19:04:02.440Z,100956.09
2018-12-30T19:06:30.282Z,100956.02
2018-12-30T19:08:58.337Z,100962.30
2018-12-30T19:11:26.231Z,100961.80
2018-12-30T19:13:56.092Z,100965.72
2018-12-30T19:16:23.932Z,100960.97
2018-12-30T19:18:51.759Z,100955.30
2018-12-30T19:21:19.598Z,100958.83
2018-12-30T19:23:47.862Z,100960.95
2018-12-30T19:26:15.697Z,100968.56
2018-12-30T19:28:43.578Z,100966.28
2018-12-30T19:31:11.442Z,100968.11
2018-12-30T19:33:39.447Z,100971.32
2018-12-30T19:36:08.438Z,100975.00
2018-12-30T19:38:37.246Z,100979.37
2018-12-30T19:41:06.472Z,100984.70
2018-12-30T19:43:35.489Z,100979.93
2018-12-30T19:46:07.828Z,100978.40
2018-12-30T19:48:36.718Z,100976.55
2018-12-30T19:51:08.186Z,100977.73
2018-12-30T19:53:39.607Z,100985.84
2018-12-30T19:56:27.616Z,100980.36
2018-12-30T19:58:56.561Z,100980.86
2018-12-30T20:01:24.853Z,100976.58
2018-12-30T20:03:55.329Z,100982.47
2018-12-30T20:06:26.573Z,100972.97
2018-12-30T20:08:56.462Z,100964.74
2018-12-30T20:11:25.382Z,100964.11
2018-12-30T20:13:54.706Z,100958.52
2018-12-30T20:16:23.970Z,100959.45
2018-12-30T20:18:54.758Z,100955.14
2018-12-30T20:21:23.458Z,100947.59
2018-12-30T20:23:51.917Z,100953.72
2018-12-30T20:26:21.149Z,100948.34
2018-12-30T20:28:51.880Z,100942.55
2018-12-30T20:31:20.450Z,100947.70
2018-12-30T20:34:14.993Z,100946.81
2018-12-30T20:36:44.093Z,100940.98
2018-12-30T20:39:14.671Z,100943.11
2018-12-30T20:41:43.887Z,100943.08
2018-12-30T20:44:15.330Z,100940.11
2018-12-30T20:46:43.695Z,100939.45
2018-12-30T20:49:12.565Z,100939.45
2018-12-30T20:51:41.420Z,100931.80
2018-12-30T20:54:31.265Z,100939.86
2018-12-30T20:57:00.128Z,100934.12
2018-12-30T20:59:31.728Z,100945.02
2018-12-30T21:02:04.667Z,100948.06
2018-12-30T21:04:35.475Z,100940.67
2018-12-30T21:07:04.189Z,100943.34
2018-12-30T21:09:36.016Z,100944.06
2018-12-30T21:12:04.983Z,100938.52
2018-12-30T21:14:34.075Z,100944.47
2018-12-30T21:17:02.518Z,100941.06
2018-12-30T21:19:30.974Z,100936.14
2018-12-30T21:21:59.383Z,100933.19
2018-12-30T21:24:28.154Z,100924.86
2018-12-30T21:26:57.136Z,100924.13
2018-12-30T21:29:27.144Z,100921.48
2018-12-30T21:31:56.023Z,100930.61
2018-12-30T21:34:24.673Z,100929.63
2018-12-30T21:36:53.252Z,100938.69
2018-12-30T21:39:21.506Z,100932.80
2018-12-30T21:41:49.983Z,100929.94
2018-12-30T21:44:18.214Z,100923.62
2018-12-30T21:46:46.545Z,100925.00
2018-12-30T21:49:14.834Z,100917.88
2018-12-30T21:51:43.168Z,100913.71
2018-12-30T21:54:11.471Z,100923.38
2018-12-30T21:56:39.926Z,100928.05
2018-12-30T21:59:08.399Z,100924.80
2018-12-30T22:01:36.651Z,100925.81
2018-12-30T22:04:05.018Z,100933.20
2018-12-30T22:06:33.374Z,100924.09
2018-12-30T22:09:01.671Z,100923.16
2018-12-30T22:11:31.888Z,100928.03
2018-12-30T22:14:00.359Z,100928.31
2018-12-30T22:16:28.607Z,100926.06
2018-12-30T22:18:56.932Z,100928.79
2018-12-30T22:21:25.019Z,100927.33
2018-12-30T22:23:53.400Z,100922.15
2018-12-30T22:26:21.778Z,100919.85
2018-12-30T22:28:49.874Z,100925.75
2018-12-30T22:31:18.184Z,100930.12
2018-12-30T22:33:46.766Z,100930.35
2018-12-30T22:36:14.919Z,100927.05
2018-12-30T22:38:43.067Z,100929.98
2018-12-30T22:41:11.544Z,100935.92
2018-12-30T22:43:39.912Z,100931.42
2018-12-30T22:46:08.355Z,100922.66
2018-12-30T22:48:36.662Z,100921.13
2018-12-30T22:51:04.952Z,100919.88
2018-12-30T22:53:33.356Z,100916.39
2018-12-30T22:56:02.162Z,100916.74
2018-12-30T22:58:33.004Z,100914.20
2018-12-30T23:01:05.313Z,100913.44
2018-12-30T23:03:34.158Z,100915.88
2018-12-30T23:06:02.467Z,100918.64
2018-12-30T23:08:30.880Z,100912.28
2018-12-30T23:10:59.126Z,100919.47
2018-12-30T23:13:27.711Z,100919.94
2018-12-30T23:15:55.869Z,100922.99
2018-12-30T23:18:24.323Z,100921.09
2018-12-30T23:20:52.641Z,100915.73
2018-12-30T23:23:31.127Z,100913.03
2018-12-30T23:25:59.925Z,100916.20
2018-12-30T23:28:28.170Z,100912.29
2018-12-30T23:30:56.458Z,100912.64
2018-12-30T23:33:27.304Z,100908.94
2018-12-30T23:35:55.704Z,100914.30
2018-12-30T23:38:24.274Z,100918.65
2018-12-30T23:40:52.659Z,100914.44
2018-12-30T23:43:21.208Z,100911.27
2018-12-30T23:45:49.545Z,100908.63
2018-12-30T23:48:17.927Z,100907.13
2018-12-30T23:51:05.982Z,100754.95
2018-12-30T23:53:34.518Z,100913.48
2018-12-30T23:56:02.715Z,100910.38
2018-12-30T23:58:31.056Z,100905.08
